| time (UTC) | temp F | wind direction | speed MPH | gust MPH | rain 1hr in | rain 24hr in | rain mn in | humidity % | barometer mb |
| 20260506093016 | 57 | 210 | 2.0 | 8.0 | 0.00 | 0.00 | 0.00 | 67 | 1011.4 |
| 20260506090016 | 57 | 187 | 5.0 | 9.0 | 0.00 | 0.00 | 0.00 | 66 | 1011.5 |
| 20260506083016 | 57 | 148 | 1.0 | 9.0 | 0.00 | 0.00 | 0.00 | 66 | 1011.7 |
| 20260506073016 | 57 | 238 | 3.0 | 11.0 | 0.00 | 0.00 | 0.00 | 66 | 1012.0 |
| 20260506043016 | 59 | 203 | 1.0 | 10.0 | 0.00 | 0.00 | 0.00 | 64 | 1012.6 |
| 20260506033016 | 59 | 239 | 3.0 | 9.0 | 0.00 | 0.00 | 0.00 | 63 | 1012.7 |
| 20260506030015 | 59 | 197 | 2.0 | 10.0 | 0.00 | 0.00 | 0.00 | 64 | 1012.7 |
| 20260506023016 | 59 | 176 | 5.0 | 9.0 | 0.00 | 0.00 | 0.00 | 63 | 1012.7 |
| 20260506020016 | 60 | 226 | 4.0 | 12.0 | 0.00 | 0.00 | 0.00 | 62 | 1012.5 |
| 20260506013016 | 61 | 214 | 6.0 | 15.0 | 0.00 | 0.00 | 0.00 | 59 | 1012.1 |
| 20260506010015 | 61 | 203 | 5.0 | 12.0 | 0.00 | 0.00 | 0.00 | 58 | 1011.5 |
| 20260506000015 | 61 | 138 | 4.0 | 13.0 | 0.00 | 0.00 | 0.00 | 58 | 1011.0 |
| 20260505233015 | 62 | 172 | 2.0 | 13.0 | 0.00 | 0.00 | 0.00 | 57 | 1010.6 |
| 20260505230015 | 62 | 210 | 8.0 | 14.0 | 0.00 | 0.00 | 0.00 | 57 | 1010.4 |
| 20260505223015 | 63 | 204 | 6.0 | 16.0 | 0.00 | 0.00 | 0.00 | 56 | 1010.1 |
| 20260505220015 | 63 | 181 | 6.0 | 11.0 | 0.00 | 0.00 | 0.00 | 54 | 1010.0 |
| 20260505213015 | 64 | 188 | 4.0 | 12.0 | 0.00 | 0.00 | 0.00 | 53 | 1009.7 |
| 20260505210015 | 64 | 201 | 5.0 | 13.0 | 0.00 | 0.00 | 0.00 | 53 | 1009.6 |
| 20260505203015 | 65 | 235 | 2.0 | 10.0 | 0.00 | 0.00 | 0.00 | 52 | 1009.8 |
| 20260505200014 | 64 | 212 | 6.0 | 13.0 | 0.00 | 0.00 | 0.00 | 53 | 1010.2 |
| 20260505193014 | 65 | 212 | 4.0 | 13.0 | 0.00 | 0.00 | 0.00 | 53 | 1010.3 |
| 20260505190014 | 65 | 212 | 7.0 | 10.0 | 0.00 | 0.00 | 0.00 | 54 | 1010.9 |
| 20260505183014 | 66 | 210 | 5.0 | 9.0 | 0.00 | 0.00 | 0.00 | 54 | 1011.1 |
| 20260505180014 | 66 | 205 | 3.0 | 7.0 | 0.00 | 0.00 | 0.00 | 54 | 1011.4 |
| 20260505163014 | 66 | 200 | 2.0 | 8.0 | 0.00 | 0.00 | 0.00 | 54 | 1011.7 |
| 20260505153014 | 67 | 195 | 1.0 | 6.0 | 0.00 | 0.00 | 0.00 | 54 | 1012.1 |
| 20260505123013 | 60 | 200 | 1.0 | 4.0 | 0.00 | 0.00 | 0.00 | 60 | 1011.9 |
| 20260505120014 | 58 | 196 | 1.0 | 5.0 | 0.00 | 0.00 | 0.00 | 62 | 1011.8 |
| 20260505113013 | 56 | 204 | 3.0 | 4.0 | 0.00 | 0.00 | 0.00 | 67 | 1011.9 |